Main page
METAR-TAF:

METAR-TAF

Airports :

Le Touquet – Côte d'Opale Airport

Le Touquet, France

latitude: 50-30-53N, longitude: 001-37-39E, elevation: 6 m

Current weather observation

The report was made 36 minutes ago, at 09:30 UTC
Wind 5 kt from the North/Northeast, varying between North and East
Temperature 10°C
Humidity 66%
Pressure 1030 hPa
Visibility 10 km or more

METAR: LFAT 240930Z AUTO 03005KT 360V080 9999 NCD 10/04 Q1030 NOSIG

Time: 11:06 (10:06 UTC)

Forecast

The report was made 2 hours and 6 minutes ago, at 08:00 UTC
Forecast valid from 24 at 09 UTC to 24 at 18 UTC
Wind 7 kt from the North
Visibility 10 km or more
no clouds below 1500 m and no cumulonimbus

TAF: LFAT 240800Z 2409/2418 35007KT CAVOK

Weather observations and forecasts of more than 4000 airports (METAR and TAF reports).

The available stations are represented by yellow and red dots on the map.

Hover mouse over dot to see the name of the station.

Then click to see weather observations and forecasts.

To change the map : click on the green buttons with a black cross to zoom in, on the green button with a dash to zoom out, or on the green arrows for adjacent maps.


METAR-TAF: